首页
METAR-TAF:

METAR-TAF

机场 :

阿塔蒂尔克国际机场

伊斯坦布尔 阿塔土克, 土耳其

纬度: 40-58N, 经度: 028-49E, 海拔: 48米

当前天气观测

该预报发布于31分钟前的10:20 UTC
风速2节,风向多变
温度 23°C
湿度 47%
气压 1018 hPa
能见度10公里或以上
1500米以下无云,无积雨云

METAR: LTBA 121020Z VRB02KT CAVOK 23/11 Q1018 NOSIG RMK RWY17L 34004KT 270V030 RWY05 VRB02KT RWY23 VRB02KT

时间: 13:51 (10:51 UTC)

预报

该预报发布于6小时和11分钟前的04:40 UTC
预报有效从12日的 06点(UTC)到 13日的 12点(UTC)
风速2节,风向多变
能见度10公里或以上
1500米以下无云,无积雨云
短暂存在
从 12日的 15点(UTC)到 12日的 19点(UTC)
风速12节,风向北转东北
成为
从 13日的 01点(UTC)到 13日的 04点(UTC)
风速12节,风向东转东南

TAF: LTBA 120440Z 1206/1312 VRB02KT CAVOK TEMPO 1215/1219 03012KT BECMG 1301/1304 12012KT

超过4000个机场的气象观测和天气预报(METAR&TAF报告)。

可查询的气象台以黄色和红色小点在地图上表示。

将鼠标移到小点上方,可查看气象台名称。

然后点击查看天气观测和预报。

如需切换地图:点击带黑十字的绿色按钮放大地图;点击带横线的绿色按钮缩小地图;或者点击绿色箭头查看邻近地区的地图。


METAR-TAF: